Time;durP1;ratioP1;P1;durP2;ratioP2;P2;SDS_P1;SDS_P2;PMS_P1;PMS_P2;Temp;Humidity;BMP_temperature;BMP_pressure;BME280_temperature;BME280_humidity;BME280_pressure;Samples;Min_cycle;Max_cycle;Signal;HPM_P1;HPM_P2
2022/02/20 00:00:34;;;;;;;7.30;2.85;;;3.20;99.90;;;;;;5026058;28;20499;-72
2022/02/20 00:03:00;;;;;;;5.55;2.40;;;3.10;99.90;;;;;;5047525;28;20041;-72
2022/02/20 00:05:26;;;;;;;6.88;2.47;;;3.20;99.90;;;;;;5032844;28;20032;-72
2022/02/20 00:07:51;;;;;;;8.30;2.92;;;3.00;99.90;;;;;;5032590;28;20075;-72
2022/02/20 00:10:17;;;;;;;9.90;2.60;;;2.90;99.90;;;;;;5024063;28;20041;-72
2022/02/20 00:12:42;;;;;;;6.22;2.47;;;2.90;99.90;;;;;;5028714;28;20111;-72
2022/02/20 00:15:08;;;;;;;5.95;2.28;;;2.90;99.90;;;;;;5025511;28;20026;-72
2022/02/20 00:17:34;;;;;;;5.82;2.40;;;2.80;99.90;;;;;;5033889;28;20034;-72
2022/02/20 00:19:59;;;;;;;8.20;2.40;;;2.80;99.90;;;;;;5035369;28;20062;-72
2022/02/20 00:22:25;;;;;;;6.93;2.42;;;2.70;99.90;;;;;;5034297;28;20044;-73
2022/02/20 00:24:51;;;;;;;6.63;2.35;;;2.70;99.90;;;;;;5035942;28;20035;-72
2022/02/20 00:27:17;;;;;;;9.52;2.55;;;2.70;99.90;;;;;;5029226;28;20549;-72
2022/02/20 00:29:42;;;;;;;6.53;2.22;;;2.70;99.90;;;;;;5042555;28;20173;-71
2022/02/20 00:32:08;;;;;;;6.72;2.38;;;2.70;99.90;;;;;;5032182;28;20025;-71
2022/02/20 00:34:34;;;;;;;8.60;2.40;;;2.60;99.90;;;;;;5033630;28;20513;-71
2022/02/20 00:37:00;;;;;;;6.03;2.58;;;2.60;99.90;;;;;;5033548;28;20029;-71
2022/02/20 00:39:28;;;;;;;7.75;2.33;;;2.60;99.90;;;;;;5033509;28;20036;-71
2022/02/20 00:41:54;;;;;;;6.80;2.30;;;2.60;99.90;;;;;;5033405;28;20472;-71
2022/02/20 00:44:19;;;;;;;8.50;2.92;;;2.60;99.90;;;;;;5032103;28;20044;-71
2022/02/20 00:46:45;;;;;;;6.28;2.47;;;2.60;99.90;;;;;;5033467;28;20083;-71
2022/02/20 00:49:10;;;;;;;9.18;2.25;;;2.60;99.90;;;;;;5033449;28;20026;-71
2022/02/20 00:51:38;;;;;;;7.85;2.22;;;2.60;99.90;;;;;;5031737;28;20490;-71
2022/02/20 00:54:04;;;;;;;9.00;2.88;;;2.60;99.90;;;;;;5033111;28;20040;-71
2022/02/20 00:56:30;;;;;;;8.45;2.80;;;2.60;99.90;;;;;;5021138;28;20076;-71
2022/02/20 00:58:55;;;;;;;8.20;2.80;;;2.60;99.90;;;;;;5017962;28;20034;-71
2022/02/20 01:01:21;;;;;;;6.38;2.35;;;2.70;99.90;;;;;;5032951;28;20036;-71
2022/02/20 01:03:46;;;;;;;6.78;2.58;;;2.70;99.90;;;;;;5033020;28;20061;-71
2022/02/20 01:06:12;;;;;;;5.28;2.42;;;2.70;99.90;;;;;;5032947;28;20036;-71
2022/02/20 01:08:37;;;;;;;7.30;2.38;;;2.70;99.90;;;;;;5035454;28;20395;-71
2022/02/20 01:11:03;;;;;;;5.45;2.25;;;2.70;99.90;;;;;;5046444;28;20017;-71
2022/02/20 01:13:28;;;;;;;6.55;2.30;;;2.70;99.90;;;;;;5015035;28;20061;-70
2022/02/20 01:15:54;;;;;;;6.88;2.47;;;2.70;99.90;;;;;;5013091;28;20026;-71
2022/02/20 01:18:19;;;;;;;6.38;2.42;;;2.70;99.90;;;;;;5015522;28;20105;-71
2022/02/20 01:20:45;;;;;;;6.55;2.30;;;2.80;99.90;;;;;;5022321;28;20468;-72
2022/02/20 01:23:10;;;;;;;6.10;2.10;;;2.80;99.90;;;;;;5024727;28;20502;-72
2022/02/20 01:25:36;;;;;;;6.85;2.50;;;2.90;99.90;;;;;;5022798;28;20025;-70
2022/02/20 01:28:02;;;;;;;5.28;2.40;;;2.90;99.90;;;;;;5032658;28;20026;-73
2022/02/20 01:30:28;;;;;;;7.22;2.70;;;2.90;99.90;;;;;;5032388;28;20475;-74
2022/02/20 01:32:53;;;;;;;7.53;2.50;;;3.00;99.90;;;;;;5032369;28;20084;-73
2022/02/20 01:35:19;;;;;;;6.53;2.33;;;3.00;99.90;;;;;;5032371;28;20026;-71
2022/02/20 01:37:44;;;;;;;6.50;2.67;;;3.10;99.90;;;;;;5032384;28;20051;-70
2022/02/20 01:40:10;;;;;;;6.72;2.25;;;3.10;99.90;;;;;;5032393;28;20033;-70
2022/02/20 01:42:36;;;;;;;7.53;2.40;;;3.10;99.90;;;;;;5030907;28;20029;-70
2022/02/20 01:45:02;;;;;;;5.32;1.95;;;3.10;99.90;;;;;;5032353;28;20104;-70
2022/02/20 01:47:29;;;;;;;8.85;2.83;;;3.20;99.90;;;;;;5031020;28;20025;-70
2022/02/20 01:49:55;;;;;;;5.35;2.63;;;3.20;99.90;;;;;;5032202;28;20014;-70
2022/02/20 01:52:22;;;;;;;7.10;2.63;;;3.40;99.90;;;;;;5026597;28;20029;-71
2022/02/20 01:54:48;;;;;;;6.88;2.30;;;3.40;99.90;;;;;;5022691;28;20022;-70
2022/02/20 01:57:14;;;;;;;4.75;2.40;;;3.30;99.90;;;;;;5039705;28;20021;-71
2022/02/20 01:59:39;;;;;;;10.55;2.70;;;3.40;99.90;;;;;;5039462;28;20119;-71
2022/02/20 02:02:05;;;;;;;7.55;2.22;;;3.30;99.90;;;;;;5016689;28;20033;-71
2022/02/20 02:04:31;;;;;;;6.30;2.92;;;3.40;99.90;;;;;;5012252;28;20040;-72
2022/02/20 02:06:56;;;;;;;7.13;2.70;;;3.50;99.90;;;;;;5012247;28;20468;-72
2022/02/20 02:09:22;;;;;;;6.90;2.72;;;3.50;99.90;;;;;;5011007;28;20399;-72
2022/02/20 02:11:48;;;;;;;8.43;2.28;;;3.50;99.90;;;;;;5012021;28;20030;-75
2022/02/20 02:14:13;;;;;;;7.45;2.50;;;3.60;99.90;;;;;;5014997;28;20029;-72
2022/02/20 02:16:39;;;;;;;5.25;2.20;;;3.70;99.90;;;;;;5031960;28;20072;-71
2022/02/20 02:19:04;;;;;;;7.35;2.53;;;3.70;99.90;;;;;;5031176;28;20503;-72
2022/02/20 02:21:30;;;;;;;4.75;2.15;;;3.90;99.90;;;;;;5027414;28;20030;-72
2022/02/20 02:23:55;;;;;;;8.10;2.58;;;3.80;99.90;;;;;;5028373;28;20025;-72
2022/02/20 02:26:22;;;;;;;6.80;2.75;;;3.90;99.90;;;;;;5025058;28;20045;-72
2022/02/20 02:28:49;;;;;;;9.52;2.53;;;4.00;99.90;;;;;;5021929;28;20074;-72
2022/02/20 02:31:16;;;;;;;5.38;2.38;;;4.00;99.90;;;;;;5033724;28;20399;-72
2022/02/20 02:33:44;;;;;;;5.70;2.20;;;3.90;99.90;;;;;;5031518;28;20058;-72
2022/02/20 02:36:10;;;;;;;5.13;2.10;;;4.00;99.90;;;;;;5024737;28;20120;-72
2022/02/20 02:38:35;;;;;;;5.80;2.35;;;4.00;99.90;;;;;;5026002;28;20527;-71
2022/02/20 02:41:09;;;;;;;8.18;2.28;;;4.00;99.90;;;;;;5023749;28;20032;-72
2022/02/20 02:43:37;;;;;;;6.80;2.50;;;4.00;99.90;;;;;;5035053;28;20029;-72
2022/02/20 02:46:04;;;;;;;5.90;2.55;;;4.10;99.90;;;;;;5043685;28;20029;-72
2022/02/20 02:48:30;;;;;;;6.30;2.15;;;4.10;99.90;;;;;;5038178;28;20032;-72
2022/02/20 02:50:56;;;;;;;5.30;2.17;;;4.10;99.90;;;;;;5029848;28;20021;-71
2022/02/20 02:53:22;;;;;;;5.30;1.98;;;4.20;99.90;;;;;;5022332;28;20025;-72
2022/02/20 02:55:49;;;;;;;8.75;2.33;;;4.20;99.90;;;;;;5023517;28;20034;-71
2022/02/20 02:58:27;;;;;;;9.40;2.70;;;4.20;99.90;;;;;;5031080;28;20018;-71
2022/02/20 03:00:54;;;;;;;9.00;2.38;;;4.20;99.90;;;;;;5021006;28;20026;-72
2022/02/20 03:03:20;;;;;;;6.57;2.67;;;4.30;99.90;;;;;;5030923;28;20095;-71
2022/02/20 03:05:46;;;;;;;6.85;2.55;;;4.40;99.90;;;;;;5027014;28;20029;-71
2022/02/20 03:08:11;;;;;;;6.60;2.35;;;4.30;99.90;;;;;;5031272;28;20052;-72
2022/02/20 03:10:37;;;;;;;7.78;2.53;;;4.30;99.90;;;;;;5029095;28;20387;-71
2022/02/20 03:13:04;;;;;;;6.75;2.60;;;4.30;99.90;;;;;;5027127;28;20360;-72
2022/02/20 03:15:29;;;;;;;8.02;2.30;;;4.40;99.90;;;;;;5024419;28;20033;-72
2022/02/20 03:17:55;;;;;;;7.80;2.30;;;4.30;99.90;;;;;;5029831;28;20442;-72
2022/02/20 03:20:21;;;;;;;8.02;2.45;;;4.40;99.90;;;;;;5031031;28;20017;-72
2022/02/20 03:22:46;;;;;;;7.30;1.92;;;4.40;99.90;;;;;;5023716;28;20029;-71
2022/02/20 03:25:12;;;;;;;7.15;2.10;;;4.40;99.90;;;;;;5026104;28;20391;-72
2022/02/20 03:27:38;;;;;;;7.85;2.50;;;4.40;99.90;;;;;;5023909;28;20360;-72
2022/02/20 03:30:04;;;;;;;8.25;2.47;;;4.50;99.90;;;;;;5026163;28;20403;-72
2022/02/20 03:32:30;;;;;;;7.78;2.22;;;4.40;99.90;;;;;;5025550;28;20025;-72
2022/02/20 03:34:55;;;;;;;6.63;2.40;;;4.50;99.90;;;;;;5044768;28;20083;-72
2022/02/20 03:37:21;;;;;;;6.18;2.45;;;4.50;99.90;;;;;;5037819;28;20045;-71
2022/02/20 03:39:46;;;;;;;9.00;2.72;;;4.50;99.90;;;;;;5027163;28;20097;-72
2022/02/20 03:42:12;;;;;;;8.70;2.88;;;4.50;99.90;;;;;;5030749;28;20467;-72
2022/02/20 03:44:38;;;;;;;6.18;2.10;;;4.50;99.90;;;;;;5037941;28;20423;-71
2022/02/20 03:47:04;;;;;;;7.82;2.53;;;4.50;99.90;;;;;;5030913;28;20439;-71
2022/02/20 03:49:29;;;;;;;4.75;2.25;;;4.50;99.90;;;;;;5028705;28;20104;-71
2022/02/20 03:51:55;;;;;;;4.85;2.28;;;4.50;99.90;;;;;;5034154;28;20034;-72
2022/02/20 03:54:20;;;;;;;6.32;2.08;;;4.50;99.90;;;;;;5042308;23;20042;-76
2022/02/20 03:56:46;;;;;;;7.47;2.35;;;4.50;99.90;;;;;;5008119;28;20037;-76
2022/02/20 03:59:11;;;;;;;9.40;2.33;;;4.50;99.90;;;;;;5020118;28;20030;-76
2022/02/20 04:01:37;;;;;;;7.38;2.38;;;4.50;99.90;;;;;;5008624;28;20494;-76
2022/02/20 04:04:03;;;;;;;5.85;2.20;;;4.50;99.90;;;;;;5014263;28;20129;-77
2022/02/20 04:06:28;;;;;;;8.13;2.35;;;4.50;99.90;;;;;;5014131;28;20126;-77
2022/02/20 04:08:54;;;;;;;6.72;2.30;;;4.50;99.90;;;;;;5014539;28;20207;-77
2022/02/20 04:11:19;;;;;;;6.53;2.15;;;4.40;99.90;;;;;;5014005;28;20045;-76
2022/02/20 04:13:45;;;;;;;5.03;2.50;;;4.50;99.90;;;;;;5013765;28;20502;-77
2022/02/20 04:16:10;;;;;;;5.35;2.20;;;4.40;99.90;;;;;;5014047;28;20144;-75
2022/02/20 04:18:37;;;;;;;9.10;2.40;;;4.40;99.90;;;;;;4996221;28;20022;-75
2022/02/20 04:21:02;;;;;;;5.95;2.20;;;4.40;99.90;;;;;;5013724;28;20108;-75
2022/02/20 04:23:30;;;;;;;10.13;2.33;;;4.40;99.90;;;;;;4996317;28;20618;-75
2022/02/20 04:26:01;;;;;;;6.30;2.30;;;4.50;99.90;;;;;;5013964;28;20021;-75
2022/02/20 04:28:28;;;;;;;7.18;2.33;;;4.50;99.90;;;;;;5013966;28;20029;-74
2022/02/20 04:30:54;;;;;;;6.45;2.20;;;4.50;99.90;;;;;;5013727;28;20097;-74
2022/02/20 04:33:19;;;;;;;8.27;2.47;;;4.50;99.90;;;;;;5013737;28;20490;-74
2022/02/20 04:35:45;;;;;;;7.05;2.78;;;4.50;99.90;;;;;;5013772;28;20038;-74
2022/02/20 04:38:10;;;;;;;7.47;2.50;;;4.50;99.90;;;;;;5013711;28;20026;-74
2022/02/20 04:40:36;;;;;;;8.35;2.35;;;4.50;99.90;;;;;;5013507;28;20054;-75
2022/02/20 04:43:01;;;;;;;6.43;2.22;;;4.60;99.90;;;;;;5013582;28;20033;-74
2022/02/20 04:45:27;;;;;;;7.63;2.42;;;4.70;99.90;;;;;;5013559;28;20026;-74
2022/02/20 04:47:52;;;;;;;7.30;1.98;;;4.40;99.90;;;;;;5013535;28;20475;-74
2022/02/20 04:50:18;;;;;;;7.60;2.25;;;4.50;99.90;;;;;;4995745;28;20487;-74
2022/02/20 04:52:44;;;;;;;4.72;1.90;;;4.50;99.90;;;;;;4995929;28;20556;-74
2022/02/20 04:55:09;;;;;;;7.95;2.58;;;4.40;99.90;;;;;;4995799;28;20403;-75
2022/02/20 04:57:36;;;;;;;8.23;2.13;;;4.60;99.90;;;;;;5013380;28;20027;-74
2022/02/20 05:00:05;;;;;;;7.82;2.55;;;4.60;99.90;;;;;;5012216;28;20555;-74
2022/02/20 05:02:30;;;;;;;5.57;2.03;;;4.60;99.90;;;;;;4995392;28;20044;-74
2022/02/20 05:04:56;;;;;;;6.20;2.55;;;4.60;99.90;;;;;;5013205;28;20025;-74
2022/02/20 05:07:21;;;;;;;9.25;2.50;;;4.60;99.90;;;;;;5013308;28;20029;-74
2022/02/20 05:09:47;;;;;;;8.90;2.72;;;4.70;99.90;;;;;;5013048;28;20029;-74
2022/02/20 05:12:13;;;;;;;6.53;2.30;;;4.70;99.90;;;;;;4995313;28;20014;-75
2022/02/20 05:14:38;;;;;;;5.65;2.08;;;4.80;99.90;;;;;;5012965;28;20076;-74
2022/02/20 05:17:04;;;;;;;5.50;2.17;;;4.80;99.90;;;;;;5012975;28;20035;-75
2022/02/20 05:19:29;;;;;;;5.85;2.00;;;4.90;99.90;;;;;;5013016;28;20025;-75
2022/02/20 05:21:55;;;;;;;6.10;1.98;;;4.90;99.90;;;;;;5012719;28;20032;-75
2022/02/20 05:24:20;;;;;;;6.57;2.40;;;4.80;99.90;;;;;;4995276;28;20064;-75
2022/02/20 05:26:46;;;;;;;8.35;2.00;;;4.80;99.90;;;;;;5012633;28;20371;-75
2022/02/20 05:29:11;;;;;;;6.80;2.20;;;4.90;99.90;;;;;;5012928;28;20068;-75
2022/02/20 05:31:37;;;;;;;6.85;2.30;;;4.90;99.90;;;;;;5012675;28;20445;-75
2022/02/20 05:34:02;;;;;;;8.82;2.20;;;4.80;99.90;;;;;;5012386;28;20018;-75
2022/02/20 05:36:28;;;;;;;5.15;2.13;;;4.90;99.90;;;;;;5012787;28;20523;-74
2022/02/20 05:38:54;;;;;;;5.00;2.00;;;4.90;99.90;;;;;;5012740;28;20072;-75
2022/02/20 05:41:20;;;;;;;4.60;2.00;;;5.00;99.90;;;;;;5012301;28;20372;-74
2022/02/20 05:43:46;;;;;;;7.05;2.30;;;5.00;99.90;;;;;;4994848;28;20037;-75
2022/02/20 05:46:11;;;;;;;5.47;2.35;;;4.80;99.90;;;;;;5012459;28;20030;-75
2022/02/20 05:48:37;;;;;;;7.20;2.03;;;4.80;99.90;;;;;;4994890;28;20153;-76
2022/02/20 05:51:03;;;;;;;8.00;2.50;;;4.80;99.90;;;;;;5012282;28;20132;-74
2022/02/20 05:53:28;;;;;;;7.40;2.10;;;4.90;99.90;;;;;;4994544;28;20033;-74
2022/02/20 05:55:54;;;;;;;7.10;1.98;;;4.90;99.90;;;;;;5012270;28;20514;-74
2022/02/20 05:58:20;;;;;;;6.00;2.40;;;4.90;99.90;;;;;;5012464;28;20038;-73
2022/02/20 06:00:45;;;;;;;4.40;2.10;;;4.90;99.90;;;;;;5012224;28;20353;-74
2022/02/20 06:03:11;;;;;;;6.35;2.00;;;4.90;99.90;;;;;;5011954;28;20022;-74
2022/02/20 06:05:36;;;;;;;7.45;2.10;;;4.90;99.90;;;;;;5020333;28;20076;-75
2022/02/20 06:08:02;;;;;;;7.55;2.42;;;4.90;99.90;;;;;;5017687;28;20102;-74
2022/02/20 06:10:28;;;;;;;6.57;2.15;;;5.00;99.90;;;;;;5011615;28;20025;-74
2022/02/20 06:12:53;;;;;;;8.10;2.25;;;5.10;99.90;;;;;;5012194;28;20018;-74
2022/02/20 06:15:19;;;;;;;5.70;2.00;;;5.00;99.90;;;;;;5012147;28;20034;-74
2022/02/20 06:17:44;;;;;;;5.18;2.00;;;5.00;99.90;;;;;;5012135;28;20175;-74
2022/02/20 06:20:10;;;;;;;5.78;2.50;;;5.00;99.90;;;;;;5010952;28;20034;-73
2022/02/20 06:22:36;;;;;;;6.60;2.38;;;5.00;99.90;;;;;;5011928;28;20459;-74
2022/02/20 06:25:03;;;;;;;7.20;2.40;;;5.00;99.90;;;;;;5011978;28;20030;-75
2022/02/20 06:27:29;;;;;;;7.47;2.20;;;5.00;99.90;;;;;;4994489;28;20080;-75
2022/02/20 06:29:54;;;;;;;5.40;2.00;;;5.00;99.90;;;;;;5012126;28;20060;-75
2022/02/20 06:32:20;;;;;;;6.57;2.17;;;5.10;99.90;;;;;;5011865;28;20034;-76
2022/02/20 06:34:45;;;;;;;7.70;2.33;;;5.00;99.90;;;;;;5011870;28;20029;-75
2022/02/20 06:37:11;;;;;;;8.02;2.30;;;5.20;99.90;;;;;;5011998;28;20077;-75
2022/02/20 06:39:37;;;;;;;4.07;1.92;;;5.20;99.90;;;;;;4994345;28;20026;-76
2022/02/20 06:42:04;;;;;;;3.92;1.95;;;5.20;99.90;;;;;;4994134;28;20522;-75
2022/02/20 06:44:29;;;;;;;6.38;2.05;;;5.10;99.90;;;;;;5011864;28;20026;-75
2022/02/20 06:46:55;;;;;;;5.10;1.83;;;5.10;99.90;;;;;;5011888;28;20430;-75
2022/02/20 06:49:21;;;;;;;8.10;3.72;;;5.00;99.90;;;;;;5011905;28;20026;-75
2022/02/20 06:51:46;;;;;;;11.45;6.38;;;5.00;99.90;;;;;;5011691;28;20047;-75
2022/02/20 06:54:12;;;;;;;6.93;3.42;;;5.00;99.90;;;;;;5011677;28;20479;-75
2022/02/20 06:56:37;;;;;;;11.88;8.23;;;4.90;99.90;;;;;;4994229;28;20029;-75
2022/02/20 06:59:03;;;;;;;9.80;8.65;;;5.00;99.90;;;;;;4994242;28;20021;-75
2022/02/20 07:01:28;;;;;;;6.22;4.20;;;5.00;99.90;;;;;;5011517;28;20117;-75
2022/02/20 07:03:54;;;;;;;4.85;2.67;;;5.00;99.90;;;;;;4994096;28;20399;-76
2022/02/20 07:06:21;;;;;;;7.68;3.65;;;4.90;99.90;;;;;;5011702;28;20030;-75
2022/02/20 07:08:50;;;;;;;5.00;2.60;;;5.10;99.90;;;;;;5011677;28;20022;-75
2022/02/20 07:11:15;;;;;;;10.13;3.50;;;5.10;99.90;;;;;;4993921;28;20041;-75
2022/02/20 07:13:41;;;;;;;9.05;2.97;;;5.10;99.90;;;;;;5011536;28;20375;-76
2022/02/20 07:16:06;;;;;;;8.20;2.53;;;5.00;99.90;;;;;;5011569;28;20044;-74
2022/02/20 07:18:32;;;;;;;5.50;2.55;;;5.20;99.90;;;;;;5011464;28;20026;-74
2022/02/20 07:20:57;;;;;;;7.63;2.42;;;5.10;99.90;;;;;;4992220;28;20119;-74
2022/02/20 07:23:23;;;;;;;4.82;2.30;;;5.20;99.90;;;;;;4994015;28;20597;-74
2022/02/20 07:25:48;;;;;;;6.63;2.38;;;5.20;99.90;;;;;;4996169;28;20030;-74
2022/02/20 07:28:14;;;;;;;6.88;2.38;;;5.40;99.90;;;;;;4995991;28;20032;-74
2022/02/20 07:30:40;;;;;;;5.55;2.05;;;5.30;99.90;;;;;;5013634;28;20026;-74
2022/02/20 07:33:07;;;;;;;5.30;2.33;;;5.30;99.90;;;;;;5013299;28;20029;-74
2022/02/20 07:35:37;;;;;;;5.88;2.70;;;5.30;99.90;;;;;;4995967;28;20451;-74
2022/02/20 07:38:02;;;;;;;7.22;3.05;;;5.30;99.90;;;;;;5013292;28;20022;-74
2022/02/20 07:40:29;;;;;;;8.40;2.75;;;5.40;99.90;;;;;;5013418;28;20036;-74
2022/02/20 07:42:55;;;;;;;6.15;3.15;;;5.40;99.90;;;;;;5012628;28;20648;-74
2022/02/20 07:45:23;;;;;;;8.88;5.78;;;5.40;99.90;;;;;;5013191;28;20109;-74
2022/02/20 07:47:59;;;;;;;7.10;2.85;;;5.40;99.90;;;;;;4995652;28;20491;-75
2022/02/20 07:50:31;;;;;;;;;;;5.40;99.90;;;;;;5013185;28;20025;-75
2022/02/20 07:52:58;;;;;;;5.40;2.63;;;5.40;99.90;;;;;;5012412;28;19912;-75
2022/02/20 07:55:24;;;;;;;7.30;3.20;;;5.40;99.90;;;;;;5013105;28;20038;-73
2022/02/20 07:57:50;;;;;;;6.28;2.38;;;5.50;99.90;;;;;;5013264;28;20104;-74
2022/02/20 08:00:18;;;;;;;12.50;5.32;;;5.40;99.90;;;;;;5013261;28;20045;-74
2022/02/20 08:02:45;;;;;;;8.32;3.85;;;5.40;99.90;;;;;;5012883;28;20017;-74
2022/02/20 08:05:11;;;;;;;9.63;4.38;;;5.40;99.90;;;;;;5013160;28;20068;-74
2022/02/20 08:07:37;;;;;;;15.32;8.43;;;5.50;99.90;;;;;;4995113;28;20026;-74
2022/02/20 08:10:04;;;;;;;6.47;3.67;;;5.50;99.90;;;;;;5012813;28;20032;-74
2022/02/20 08:12:29;;;;;;;15.25;6.72;;;5.60;99.90;;;;;;5012543;28;20018;-74
2022/02/20 08:14:55;;;;;;;10.38;4.85;;;5.70;99.90;;;;;;5013163;28;20076;-74
2022/02/20 08:17:24;;;;;;;26.58;13.20;;;5.70;99.90;;;;;;5013153;28;20018;-74
2022/02/20 08:19:50;;;;;;;17.33;6.53;;;5.80;99.90;;;;;;5012797;28;20030;-75
2022/02/20 08:22:16;;;;;;;13.60;8.15;;;5.70;99.90;;;;;;5012553;28;20018;-74
2022/02/20 08:24:43;;;;;;;11.27;7.13;;;5.80;99.90;;;;;;5013617;28;20097;-76
2022/02/20 08:27:09;;;;;;;9.50;3.25;;;5.80;99.90;;;;;;4996394;28;20057;-76
2022/02/20 08:29:35;;;;;;;6.85;3.53;;;5.80;99.90;;;;;;5014050;28;20357;-76
2022/02/20 08:32:02;;;;;;;6.55;2.35;;;5.80;99.90;;;;;;5013753;28;20049;-76
2022/02/20 08:34:28;;;;;;;7.68;2.28;;;5.80;99.90;;;;;;5013547;28;20022;-77
2022/02/20 08:36:54;;;;;;;5.07;2.22;;;5.70;99.90;;;;;;4995889;28;20785;-75
2022/02/20 08:39:20;;;;;;;6.63;2.00;;;5.70;99.90;;;;;;5012201;28;20106;-74
2022/02/20 08:41:45;;;;;;;4.63;2.28;;;5.70;99.90;;;;;;5012034;28;20026;-75
2022/02/20 08:44:11;;;;;;;6.90;2.22;;;5.70;99.90;;;;;;5013185;28;20030;-75
2022/02/20 08:46:36;;;;;;;7.35;2.00;;;5.70;99.90;;;;;;4995956;28;20037;-75
2022/02/20 08:49:02;;;;;;;3.10;2.17;;;5.70;99.90;;;;;;4995992;28;20037;-74
2022/02/20 08:51:27;;;;;;;6.30;2.20;;;5.70;99.90;;;;;;5013707;28;20076;-76
2022/02/20 08:53:53;;;;;;;6.22;2.42;;;5.80;99.90;;;;;;5013471;28;20038;-76
2022/02/20 08:56:19;;;;;;;6.55;2.38;;;5.70;99.90;;;;;;5013619;28;20028;-75
2022/02/20 08:58:45;;;;;;;6.10;2.40;;;5.80;99.90;;;;;;5013545;28;20022;-76
2022/02/20 09:01:11;;;;;;;3.97;2.63;;;5.70;99.90;;;;;;5013372;28;20476;-76
2022/02/20 09:03:36;;;;;;;3.67;2.10;;;5.70;99.90;;;;;;5013401;28;20041;-76
2022/02/20 09:06:02;;;;;;;4.35;2.22;;;5.80;99.90;;;;;;5013439;28;20030;-75
2022/02/20 09:08:28;;;;;;;13.00;2.83;;;5.80;99.90;;;;;;5013358;28;20076;-76
2022/02/20 09:10:54;;;;;;;6.18;2.33;;;5.90;99.90;;;;;;4995638;28;20459;-76
2022/02/20 09:13:19;;;;;;;6.57;2.20;;;5.90;99.90;;;;;;4995611;28;20053;-76
2022/02/20 09:15:45;;;;;;;6.88;2.47;;;5.90;99.90;;;;;;5013228;28;20034;-75
2022/02/20 09:18:11;;;;;;;8.27;2.35;;;5.90;99.90;;;;;;5013125;28;20018;-74
2022/02/20 09:20:36;;;;;;;5.43;2.60;;;5.90;99.90;;;;;;5013128;28;20022;-75
2022/02/20 09:23:03;;;;;;;6.05;2.05;;;5.90;99.90;;;;;;4995905;28;20049;-74
2022/02/20 09:25:29;;;;;;;4.88;2.70;;;5.90;99.90;;;;;;5013004;28;20402;-74
2022/02/20 09:27:54;;;;;;;4.28;2.75;;;5.90;99.90;;;;;;4995158;28;20026;-74
2022/02/20 09:30:20;;;;;;;7.03;2.70;;;6.00;99.90;;;;;;5012612;28;20090;-74
2022/02/20 09:32:47;;;;;;;5.22;2.08;;;6.10;99.90;;;;;;5012766;28;20025;-74
2022/02/20 09:35:12;;;;;;;7.03;2.63;;;6.00;99.90;;;;;;4995304;28;20021;-74
2022/02/20 09:37:38;;;;;;;5.57;2.50;;;6.00;99.90;;;;;;5012789;28;20041;-74
2022/02/20 09:40:05;;;;;;;5.80;2.30;;;6.00;99.90;;;;;;5012738;28;20030;-74
2022/02/20 09:42:31;;;;;;;4.03;2.03;;;5.90;99.90;;;;;;5012628;28;20064;-76
2022/02/20 09:44:56;;;;;;;8.48;2.15;;;5.90;99.90;;;;;;5012149;28;20460;-76
2022/02/20 09:47:30;;;;;;;7.10;2.30;;;5.90;99.90;;;;;;5012547;28;20053;-76
2022/02/20 09:49:59;;;;;;;4.78;2.10;;;5.90;99.90;;;;;;4995194;28;20093;-75
2022/02/20 09:52:25;;;;;;;7.18;2.10;;;5.90;99.90;;;;;;5012525;28;20018;-76
2022/02/20 09:54:50;;;;;;;8.27;2.67;;;5.90;99.90;;;;;;5012832;28;20033;-74
2022/02/20 09:57:16;;;;;;;6.50;1.92;;;6.00;99.90;;;;;;4994733;28;20056;-74
2022/02/20 09:59:41;;;;;;;4.43;1.98;;;6.00;99.90;;;;;;5012365;28;20022;-75
2022/02/20 10:02:09;;;;;;;5.97;1.98;;;6.00;99.90;;;;;;5012176;28;20038;-75
2022/02/20 10:04:47;;;;;;;6.78;2.47;;;6.00;99.90;;;;;;5012331;28;20151;-75
2022/02/20 10:07:33;;;;;;;8.25;2.10;;;5.90;99.90;;;;;;4994612;28;20554;-75
2022/02/20 10:10:04;;;;;;;4.88;2.53;;;6.00;99.90;;;;;;5012187;28;20466;-75
2022/02/20 10:12:30;;;;;;;5.05;1.85;;;6.00;99.90;;;;;;5011953;28;20065;-75
2022/02/20 10:14:56;;;;;;;4.65;1.95;;;6.00;99.90;;;;;;4994394;28;20018;-75
2022/02/20 10:17:25;;;;;;;4.55;2.08;;;6.00;99.90;;;;;;5012158;28;20025;-75
2022/02/20 10:19:52;;;;;;;6.03;2.22;;;6.00;99.90;;;;;;5012026;28;20109;-75
2022/02/20 10:22:44;;;;;;;6.82;2.20;;;6.00;99.90;;;;;;4994114;28;20022;-75
2022/02/20 10:25:12;;;;;;;3.75;1.88;;;6.10;99.90;;;;;;5007230;28;20041;-75
2022/02/20 10:27:50;;;;;;;4.70;1.83;;;6.10;99.90;;;;;;5012143;28;20030;-75
2022/02/20 10:30:26;;;;;;;6.07;2.50;;;6.10;99.90;;;;;;4974926;28;20018;-75
2022/02/20 10:33:03;;;;;;;5.40;1.80;;;6.00;99.90;;;;;;5008044;28;20134;-74
2022/02/20 10:35:34;;;;;;;6.82;2.15;;;6.00;99.90;;;;;;5011912;28;20080;-73
2022/02/20 10:38:05;;;;;;;4.45;1.70;;;6.00;99.90;;;;;;5011810;28;20576;-74
2022/02/20 10:40:32;;;;;;;5.55;2.20;;;6.00;99.90;;;;;;5011666;28;20092;-74
2022/02/20 10:43:00;;;;;;;3.92;1.98;;;6.00;99.90;;;;;;5011656;28;20038;-74
2022/02/20 10:45:33;;;;;;;6.50;2.25;;;6.00;99.90;;;;;;5011628;28;20030;-75
2022/02/20 10:48:00;;;;;;;3.30;1.83;;;5.90;99.90;;;;;;5011642;28;20164;-74
2022/02/20 10:50:28;;;;;;;5.15;1.73;;;5.90;99.90;;;;;;5016790;28;20036;-74
2022/02/20 10:53:07;;;;;;;6.28;2.60;;;5.90;99.90;;;;;;5019701;28;20068;-74
2022/02/20 10:55:43;;;;;;;3.67;1.83;;;5.90;99.90;;;;;;5011830;28;20490;-75
2022/02/20 10:58:14;;;;;;;5.22;2.30;;;5.90;99.90;;;;;;5015606;28;20026;-75
2022/02/20 11:00:54;;;;;;;5.03;1.73;;;5.90;99.90;;;;;;5015732;28;20034;-75
2022/02/20 11:03:25;;;;;;;5.60;1.60;;;6.00;99.90;;;;;;5015624;28;20033;-75
2022/02/20 11:05:51;;;;;;;4.55;1.60;;;6.00;99.90;;;;;;5015678;28;20357;-75
2022/02/20 11:08:22;;;;;;;3.67;1.70;;;5.90;99.90;;;;;;5015589;28;20037;-75
2022/02/20 11:10:48;;;;;;;2.65;1.63;;;6.00;99.90;;;;;;5015403;28;20032;-75
2022/02/20 11:13:15;;;;;;;3.67;1.67;;;6.00;99.90;;;;;;5015456;28;20411;-75
2022/02/20 11:15:42;;;;;;;2.95;1.50;;;6.00;99.90;;;;;;4997826;28;20022;-76
2022/02/20 11:18:11;;;;;;;3.47;1.35;;;6.00;99.90;;;;;;4997782;28;20026;-75
2022/02/20 11:20:40;;;;;;;1.67;1.27;;;6.00;99.90;;;;;;4997500;28;20127;-75
2022/02/20 11:23:07;;;;;;;3.25;1.42;;;6.00;99.90;;;;;;5015388;28;20029;-75
2022/02/20 11:25:35;;;;;;;2.65;1.48;;;6.00;99.90;;;;;;5015216;28;20105;-75
2022/02/20 11:28:02;;;;;;;5.05;1.25;;;6.00;99.90;;;;;;5015243;28;20390;-74
2022/02/20 11:30:28;;;;;;;2.70;1.30;;;6.00;99.90;;;;;;5015087;28;20029;-74
2022/02/20 11:32:56;;;;;;;1.95;1.20;;;6.10;99.90;;;;;;5015187;28;20021;-75
2022/02/20 11:35:22;;;;;;;2.47;1.17;;;6.00;99.90;;;;;;5014957;28;20108;-74
2022/02/20 11:37:54;;;;;;;2.63;1.08;;;6.10;99.90;;;;;;4997367;28;20479;-75
2022/02/20 11:40:21;;;;;;;2.55;1.10;;;6.10;99.90;;;;;;5014895;28;20048;-74
2022/02/20 11:42:58;;;;;;;1.98;1.15;;;6.20;99.90;;;;;;5014791;28;20113;-74
2022/02/20 11:45:24;;;;;;;2.10;1.02;;;6.20;99.90;;;;;;5012824;28;20018;-74
2022/02/20 11:48:00;;;;;;;2.50;1.50;;;6.30;99.90;;;;;;5014278;28;20101;-74
2022/02/20 11:50:25;;;;;;;3.60;1.20;;;6.30;99.90;;;;;;5012660;28;20097;-74
2022/02/20 11:52:53;;;;;;;3.05;1.17;;;6.40;99.90;;;;;;5014173;28;20093;-74
2022/02/20 11:55:20;;;;;;;0.98;0.90;;;6.40;99.90;;;;;;5014660;28;20440;-74
2022/02/20 11:57:49;;;;;;;1.05;0.90;;;6.50;99.90;;;;;;5014854;28;20022;-74
2022/02/20 12:00:22;;;;;;;1.48;1.02;;;6.50;99.90;;;;;;4996755;28;20075;-73
2022/02/20 12:03:19;;;;;;;2.83;1.10;;;6.60;99.90;;;;;;5014596;28;20029;-74
2022/02/20 12:06:18;;;;;;;1.35;1.05;;;6.60;99.90;;;;;;5014384;28;20110;-74
2022/02/20 12:08:46;;;;;;;2.42;0.93;;;6.70;99.90;;;;;;5013582;28;20041;-74
2022/02/20 12:11:19;;;;;;;2.33;0.93;;;6.80;99.90;;;;;;5014120;28;20064;-74
2022/02/20 12:13:55;;;;;;;3.80;1.20;;;6.80;99.90;;;;;;4996353;28;20022;-75
2022/02/20 12:16:32;;;;;;;1.35;0.95;;;6.90;99.90;;;;;;5014676;28;20021;-75
2022/02/20 12:19:32;;;;;;;2.50;1.08;;;6.90;99.90;;;;;;5011696;28;20479;-74
2022/02/20 12:22:05;;;;;;;1.67;1.10;;;7.00;99.90;;;;;;5019749;28;20028;-74
2022/02/20 12:24:41;;;;;;;2.42;1.13;;;6.90;99.90;;;;;;5014199;28;20037;-75
2022/02/20 12:27:11;;;;;;;1.30;0.80;;;7.00;99.90;;;;;;5014013;28;20030;-74
2022/02/20 12:29:50;;;;;;;1.60;0.90;;;7.00;99.90;;;;;;5013938;28;20080;-75
2022/02/20 12:32:20;;;;;;;1.70;1.20;;;7.10;99.90;;;;;;4996221;28;20026;-75
2022/02/20 12:34:56;;;;;;;2.08;0.80;;;7.10;99.90;;;;;;5013823;28;20096;-75
2022/02/20 12:37:45;;;;;;;1.52;0.88;;;7.00;99.90;;;;;;5013863;28;20025;-75
2022/02/20 12:40:16;;;;;;;1.58;1.08;;;7.10;99.90;;;;;;5013765;28;20018;-75
2022/02/20 12:42:47;;;;;;;2.00;0.90;;;7.10;99.90;;;;;;5013365;28;20149;-75
2022/02/20 12:45:22;;;;;;;1.40;0.90;;;7.10;99.90;;;;;;4996052;28;20025;-75
2022/02/20 12:47:49;;;;;;;1.73;1.02;;;7.20;99.90;;;;;;4995935;28;20021;-75
2022/02/20 12:50:16;;;;;;;1.55;0.90;;;7.10;99.90;;;;;;5013167;28;20026;-74
2022/02/20 12:52:43;;;;;;;1.55;0.70;;;7.20;99.90;;;;;;4995639;28;20030;-76
2022/02/20 12:55:14;;;;;;;1.45;0.90;;;7.10;99.90;;;;;;5013781;28;20132;-75
2022/02/20 12:57:40;;;;;;;1.40;0.95;;;7.10;99.90;;;;;;5013872;28;20033;-75